Time;durP1;ratioP1;P1;durP2;ratioP2;P2;SDS_P1;SDS_P2;PMS_P1;PMS_P2;Temp;Humidity;BMP_temperature;BMP_pressure;BME280_temperature;BME280_humidity;BME280_pressure;Samples;Min_cycle;Max_cycle;Signal;HPM_P1;HPM_P2
2022/08/08 00:00:19;;;;;;;6.88;4.45;;;25.40;99.90;;;;;;4971262;28;20487;-53
2022/08/08 00:03:03;;;;;;;10.80;4.43;;;25.40;99.90;;;;;;4971740;28;20035;-52
2022/08/08 00:05:42;;;;;;;10.95;4.88;;;25.30;99.90;;;;;;4970002;28;20117;-54
2022/08/08 00:08:31;;;;;;;7.05;4.93;;;;;;;;;;4970541;28;20153;-57
2022/08/08 00:11:13;;;;;;;7.93;4.65;;;25.20;99.90;;;;;;4971374;28;20042;-53
2022/08/08 00:13:47;;;;;;;5.55;4.35;;;25.20;99.90;;;;;;4971140;28;20034;-54
2022/08/08 00:16:23;;;;;;;6.55;4.82;;;25.20;99.90;;;;;;4970692;28;20502;-54
2022/08/08 00:19:03;;;;;;;7.68;4.75;;;25.20;99.90;;;;;;4969883;28;20046;-56
2022/08/08 00:21:44;;;;;;;5.93;4.40;;;25.20;99.90;;;;;;4970431;28;20461;-52
2022/08/08 00:24:19;;;;;;;6.53;3.90;;;25.20;99.90;;;;;;4970295;28;20489;-53
2022/08/08 00:26:53;;;;;;;6.25;4.55;;;25.30;99.90;;;;;;4969864;28;20089;-54
2022/08/08 00:29:33;;;;;;;15.00;5.70;;;25.20;99.90;;;;;;4969902;28;20054;-56
2022/08/08 00:32:09;;;;;;;7.15;4.88;;;25.20;99.90;;;;;;5001926;28;20049;-55
2022/08/08 00:37:40;;;;;;;6.47;4.82;;;;;;;;;;5044519;28;20454;-53
2022/08/08 00:40:27;;;;;;;6.20;4.80;;;25.00;99.90;;;;;;5047344;28;20024;-53
2022/08/08 00:43:18;;;;;;;6.78;4.43;;;25.00;99.90;;;;;;5044892;28;20057;-55
2022/08/08 00:45:44;;;;;;;11.73;5.40;;;;;;;;;;5048359;28;20037;-55
2022/08/08 00:48:35;;;;;;;6.82;5.28;;;25.00;99.90;;;;;;5048789;28;20029;-56
2022/08/08 00:51:06;;;;;;;7.55;4.72;;;24.80;99.90;;;;;;5042809;28;20028;-56
2022/08/08 00:53:50;;;;;;;;;;;24.80;99.90;;;;;;5032650;28;20127;-54
2022/08/08 00:56:42;;;;;;;7.32;5.03;;;24.80;99.90;;;;;;5043410;28;19913;-56
2022/08/08 00:59:29;;;;;;;;;;;24.80;99.90;;;;;;5024624;28;20512;-55
2022/08/08 01:02:02;;;;;;;9.85;5.38;;;;;;;;;;5017701;28;19944;-52
2022/08/08 01:04:57;;;;;;;8.48;5.50;;;24.80;99.90;;;;;;5016629;28;20060;-52
2022/08/08 01:07:47;;;;;;;5.95;5.38;;;24.80;99.90;;;;;;5021289;28;20548;-53
2022/08/08 01:10:34;;;;;;;9.30;5.70;;;24.80;99.90;;;;;;5008452;28;20053;-55
2022/08/08 01:13:22;;;;;;;8.85;5.50;;;24.80;99.90;;;;;;5019097;28;20057;-54
2022/08/08 01:16:27;;;;;;;16.25;5.82;;;24.80;99.90;;;;;;5023858;28;20424;-55
2022/08/08 01:19:26;;;;;;;7.82;5.90;;;24.80;99.90;;;;;;4999509;28;20050;-56
2022/08/08 01:22:13;;;;;;;6.63;5.85;;;24.80;99.90;;;;;;5019202;28;20171;-54
2022/08/08 01:24:53;;;;;;;11.98;5.45;;;24.70;99.90;;;;;;5018976;28;20034;-54
2022/08/08 01:27:43;;;;;;;8.93;5.18;;;24.60;99.90;;;;;;5019006;28;20053;-53
2022/08/08 01:30:29;;;;;;;10.05;5.65;;;24.60;99.90;;;;;;5030874;28;20042;-53
2022/08/08 01:33:29;;;;;;;10.88;5.65;;;24.40;99.90;;;;;;5049648;28;20029;-51
2022/08/08 01:36:33;;;;;;;9.55;5.38;;;24.50;99.90;;;;;;5040937;28;20438;-55
2022/08/08 01:39:24;;;;;;;9.55;5.53;;;24.40;99.90;;;;;;5041403;28;20055;-53
2022/08/08 01:42:09;;;;;;;6.77;5.30;;;;;;;;;;5043000;28;20540;-53
2022/08/08 01:45:08;;;;;;;10.02;5.40;;;24.30;99.90;;;;;;5042782;28;20029;-55
2022/08/08 01:47:49;;;;;;;6.70;5.10;;;24.20;99.90;;;;;;5038512;28;20032;-54
2022/08/08 01:50:27;;;;;;;10.43;5.63;;;;;;;;;;5038587;28;20132;-55
2022/08/08 01:53:02;;;;;;;8.10;4.90;;;;;;;;;;5038430;28;20048;-53
2022/08/08 01:55:38;;;;;;;7.80;5.55;;;;;;;;;;5038564;28;20029;-55
2022/08/08 01:58:37;;;;;;;8.20;5.63;;;24.20;99.90;;;;;;5042962;28;20116;-56
2022/08/08 02:01:46;;;;;;;6.95;5.55;;;24.20;99.90;;;;;;5040615;28;20036;-53
2022/08/08 02:04:32;;;;;;;6.05;5.18;;;;;;;;;;4989187;28;20042;-58
2022/08/08 02:07:01;;;;;;;9.20;5.32;;;;;;;;;;4983181;28;20750;-53
2022/08/08 02:09:27;;;;;;;7.03;5.60;;;;;;;;;;4988796;28;20046;-53
2022/08/08 02:11:53;;;;;;;10.23;5.82;;;;;;;;;;4989271;28;20106;-52
2022/08/08 02:14:45;;;;;;;13.07;6.95;;;24.20;99.90;;;;;;4989242;28;20090;-52
2022/08/08 02:17:32;;;;;;;11.87;6.33;;;24.30;99.90;;;;;;4985794;28;20045;-54
2022/08/08 02:20:11;;;;;;;9.15;5.80;;;;;;;;;;4979227;28;20043;-55
2022/08/08 02:22:55;;;;;;;10.73;5.40;;;;;;;;;;4973058;28;20035;-55
2022/08/08 02:25:27;;;;;;;5.45;4.90;;;;;;;;;;4973037;28;20250;-51
2022/08/08 02:27:57;;;;;;;8.60;5.45;;;;;;;;;;4973164;28;20106;-54
2022/08/08 02:30:41;;;;;;;7.68;5.70;;;;;;;;;;4957286;28;20043;-53
2022/08/08 02:33:13;;;;;;;7.18;5.85;;;23.90;99.90;;;;;;4972916;28;20055;-52
2022/08/08 02:35:39;;;;;;;;;;;;;;;;;;4973243;28;20035;-55
2022/08/08 02:38:05;;;;;;;6.03;5.30;;;;;;;;;;4972874;28;19910;-54
2022/08/08 02:40:42;;;;;;;8.25;5.75;;;;;;;;;;4999017;28;20089;-55
2022/08/08 02:43:31;;;;;;;6.05;5.45;;;;;;;;;;5004404;28;20026;-53
2022/08/08 02:45:57;;;;;;;7.93;6.05;;;23.80;99.90;;;;;;4962718;28;20062;-53
2022/08/08 02:48:26;;;;;;;10.10;6.22;;;;;;;;;;4972628;28;20081;-54
2022/08/08 02:51:11;;;;;;;7.63;5.15;;;;;;;;;;4973028;28;20043;-53
2022/08/08 02:54:13;;;;;;;9.82;5.80;;;23.60;99.90;;;;;;4972554;28;20471;-54
2022/08/08 02:56:45;;;;;;;11.93;6.53;;;;;;;;;;4963326;28;20043;-51
2022/08/08 02:59:23;;;;;;;12.38;6.70;;;;;;;;;;4968758;28;20491;-51
2022/08/08 03:02:01;;;;;;;9.02;6.43;;;;;;;;;;4966731;28;20042;-55
2022/08/08 03:04:46;;;;;;;6.93;6.22;;;;;;;;;;4972377;28;20462;-56
2022/08/08 03:07:18;;;;;;;7.55;6.40;;;;;;;;;;4972146;28;20486;-57
2022/08/08 03:10:02;;;;;;;9.80;6.10;;;;;;;;;;4972047;28;20081;-58
2022/08/08 03:12:29;;;;;;;8.73;6.75;;;;;;;;;;4972262;28;20466;-54
2022/08/08 03:15:07;;;;;;;8.65;6.05;;;23.50;99.90;;;;;;4972078;28;20035;-55
2022/08/08 03:18:16;;;;;;;8.57;6.32;;;23.40;99.90;;;;;;4969208;28;20042;-54
2022/08/08 03:20:52;;;;;;;10.63;6.60;;;23.40;99.90;;;;;;4947278;28;20063;-53
2022/08/08 03:23:21;;;;;;;8.63;6.80;;;23.30;99.90;;;;;;4953555;28;20058;-53
2022/08/08 03:25:48;;;;;;;11.77;6.95;;;23.40;99.90;;;;;;4960313;28;20043;-54
2022/08/08 03:28:39;;;;;;;12.27;7.95;;;23.40;99.90;;;;;;4960838;28;20034;-54
2022/08/08 03:33:52;;;;;;;14.38;6.85;;;23.40;99.90;;;;;;5002561;28;20034;-55
2022/08/08 03:36:18;;;;;;;8.73;6.55;;;23.40;99.90;;;;;;4999207;28;20038;-56
2022/08/08 03:38:51;;;;;;;9.52;6.72;;;23.40;99.90;;;;;;5008209;28;20209;-55
2022/08/08 03:41:17;;;;;;;13.30;7.30;;;23.30;99.90;;;;;;5005503;28;20037;-52
2022/08/08 03:43:56;;;;;;;17.88;7.45;;;23.30;99.90;;;;;;4999965;28;20045;-54
2022/08/08 03:46:21;;;;;;;9.00;6.45;;;23.30;99.90;;;;;;4999962;28;20049;-55
2022/08/08 03:48:58;;;;;;;9.32;6.38;;;23.30;99.90;;;;;;4977936;28;20387;-53
2022/08/08 03:51:24;;;;;;;12.90;7.00;;;23.30;99.90;;;;;;4996919;28;20038;-54
2022/08/08 03:53:54;;;;;;;9.40;6.88;;;23.40;99.90;;;;;;4958985;28;20038;-56
2022/08/08 03:56:21;;;;;;;9.57;6.72;;;23.40;99.90;;;;;;5002990;28;20060;-52
2022/08/08 03:58:52;;;;;;;8.48;6.95;;;23.40;99.90;;;;;;5010182;28;20045;-55
2022/08/08 04:01:19;;;;;;;8.38;6.40;;;23.50;99.90;;;;;;5010314;28;20062;-53
2022/08/08 04:03:47;;;;;;;10.85;6.65;;;23.50;99.90;;;;;;5010217;28;20041;-56
2022/08/08 04:06:13;;;;;;;8.57;6.65;;;23.40;99.90;;;;;;5008176;28;20432;-52
2022/08/08 04:08:40;;;;;;;7.95;5.88;;;23.40;99.90;;;;;;5009923;28;20041;-51
2022/08/08 04:11:07;;;;;;;8.98;6.15;;;23.50;99.90;;;;;;5006086;28;20042;-52
2022/08/08 04:13:33;;;;;;;8.05;6.18;;;23.50;99.90;;;;;;5001736;28;20034;-55
2022/08/08 04:15:59;;;;;;;9.68;6.43;;;23.40;99.90;;;;;;5000704;28;20061;-52
2022/08/08 04:18:25;;;;;;;10.13;6.40;;;23.40;99.90;;;;;;5003322;28;20077;-55
2022/08/08 04:20:51;;;;;;;15.90;6.57;;;23.50;99.90;;;;;;5023625;28;20403;-53
2022/08/08 04:23:17;;;;;;;6.93;6.00;;;23.40;99.90;;;;;;5043531;28;20049;-55
2022/08/08 04:25:43;;;;;;;8.38;6.75;;;23.40;99.90;;;;;;5043698;28;20033;-56
2022/08/08 04:28:09;;;;;;;7.57;6.15;;;23.40;99.90;;;;;;5043786;28;20033;-53
2022/08/08 04:30:35;;;;;;;12.15;7.20;;;23.40;99.90;;;;;;5020483;28;20041;-56
2022/08/08 04:33:01;;;;;;;9.07;6.90;;;23.50;99.90;;;;;;5021086;28;20034;-51
2022/08/08 04:35:27;;;;;;;9.45;7.18;;;23.50;99.90;;;;;;5043640;28;20492;-56
2022/08/08 04:37:54;;;;;;;10.10;6.50;;;23.50;99.90;;;;;;5018995;28;20033;-57
2022/08/08 04:40:20;;;;;;;8.98;7.03;;;23.50;99.90;;;;;;5045554;28;20025;-54
2022/08/08 04:42:46;;;;;;;9.02;7.22;;;23.50;99.90;;;;;;5041735;28;20397;-56
2022/08/08 04:45:13;;;;;;;6.88;6.18;;;23.50;99.90;;;;;;5041431;28;20032;-53
2022/08/08 04:47:38;;;;;;;12.75;8.13;;;23.50;99.90;;;;;;5041611;28;20040;-54
2022/08/08 04:50:05;;;;;;;11.63;7.28;;;23.60;99.90;;;;;;5042479;28;20033;-54
2022/08/08 04:52:31;;;;;;;18.17;7.28;;;23.70;99.90;;;;;;5024684;28;20549;-55
2022/08/08 04:54:57;;;;;;;7.53;6.72;;;23.70;99.90;;;;;;5025812;28;20028;-56
2022/08/08 04:57:23;;;;;;;7.47;6.43;;;23.70;99.90;;;;;;5022308;28;20737;-57
2022/08/08 04:59:48;;;;;;;7.97;6.82;;;23.80;99.90;;;;;;5042193;28;20025;-54
2022/08/08 05:02:14;;;;;;;11.63;6.47;;;23.90;99.90;;;;;;5045568;28;20477;-55
2022/08/08 05:04:41;;;;;;;8.95;6.85;;;24.00;99.90;;;;;;5045358;28;20476;-55
2022/08/08 05:07:07;;;;;;;9.32;6.57;;;24.10;99.90;;;;;;5045884;28;20021;-55
2022/08/08 05:09:33;;;;;;;7.38;6.25;;;24.20;99.90;;;;;;5044533;28;20072;-55
2022/08/08 05:11:59;;;;;;;12.60;6.60;;;24.20;99.90;;;;;;5040970;28;20033;-54
2022/08/08 05:14:25;;;;;;;10.55;6.30;;;24.20;99.90;;;;;;5041232;28;20033;-54
2022/08/08 05:16:51;;;;;;;7.90;6.82;;;24.20;99.90;;;;;;5043900;28;20052;-55
2022/08/08 05:19:17;;;;;;;9.23;8.07;;;24.20;99.90;;;;;;5040798;28;20493;-56
2022/08/08 05:21:43;;;;;;;12.07;6.85;;;24.20;99.90;;;;;;5041401;28;20029;-54
2022/08/08 05:24:10;;;;;;;11.20;6.93;;;24.30;99.90;;;;;;5045283;28;20392;-53
2022/08/08 05:26:37;;;;;;;11.18;7.13;;;24.40;99.90;;;;;;5039644;28;20116;-55
2022/08/08 05:29:07;;;;;;;9.05;6.45;;;24.50;99.90;;;;;;5041952;28;20032;-53
2022/08/08 05:31:36;;;;;;;7.45;6.75;;;24.50;99.90;;;;;;5038309;28;20500;-53
2022/08/08 05:34:10;;;;;;;13.27;6.90;;;24.60;99.90;;;;;;5049721;28;20055;-56
2022/08/08 05:36:37;;;;;;;11.02;6.50;;;24.70;99.90;;;;;;5042766;28;20044;-55
2022/08/08 05:39:05;;;;;;;7.70;6.60;;;24.60;99.90;;;;;;5036299;28;20086;-56
2022/08/08 05:41:35;;;;;;;10.75;6.93;;;24.70;99.90;;;;;;5038631;28;20052;-55
2022/08/08 05:44:27;;;;;;;10.52;7.13;;;24.70;99.90;;;;;;5040847;28;20485;-54
2022/08/08 05:46:55;;;;;;;9.65;6.35;;;24.70;99.90;;;;;;5040585;28;20029;-55
2022/08/08 05:49:21;;;;;;;8.27;6.32;;;24.80;99.90;;;;;;5041116;28;20108;-55
2022/08/08 05:51:47;;;;;;;10.00;6.57;;;24.80;99.90;;;;;;5013683;28;20033;-54
2022/08/08 05:54:14;;;;;;;7.40;5.80;;;24.90;99.90;;;;;;5045908;28;20025;-54
2022/08/08 05:56:43;;;;;;;11.13;6.28;;;25.10;99.90;;;;;;5042859;28;20585;-52
2022/08/08 05:59:20;;;;;;;6.80;5.30;;;25.30;99.90;;;;;;5053416;28;20017;-52
2022/08/08 06:01:53;;;;;;;7.18;5.88;;;25.50;99.90;;;;;;5045162;28;20041;-53
2022/08/08 06:04:23;;;;;;;10.52;5.53;;;25.70;99.90;;;;;;5037928;28;20033;-55
2022/08/08 06:06:52;;;;;;;5.78;5.18;;;25.90;99.90;;;;;;5044179;28;20515;-56
2022/08/08 06:09:27;;;;;;;6.68;5.55;;;26.00;99.90;;;;;;5038156;28;20050;-55
2022/08/08 06:11:59;;;;;;;6.03;5.18;;;26.10;99.90;;;;;;5044730;28;20039;-53
2022/08/08 06:14:30;;;;;;;7.65;4.75;;;26.20;99.90;;;;;;5038700;28;20085;-55
2022/08/08 06:16:59;;;;;;;7.22;5.00;;;26.30;99.90;;;;;;5046589;28;20117;-54
2022/08/08 06:19:26;;;;;;;6.47;4.22;;;26.40;99.90;;;;;;5045072;28;20523;-55
2022/08/08 06:21:52;;;;;;;5.50;4.80;;;26.30;99.90;;;;;;5045307;28;20116;-56
2022/08/08 06:24:18;;;;;;;7.63;5.13;;;26.50;99.90;;;;;;5043498;28;20045;-54
2022/08/08 06:27:09;;;;;;;5.63;4.97;;;26.60;99.90;;;;;;5023321;28;20049;-56
2022/08/08 06:30:05;;;;;;;9.20;5.65;;;26.90;99.90;;;;;;5046218;28;20049;-51
2022/08/08 06:32:35;;;;;;;9.23;4.18;;;26.50;99.90;;;;;;5044856;28;20047;-53
2022/08/08 06:35:08;;;;;;;6.57;4.25;;;26.70;99.90;;;;;;5048573;28;20025;-56
2022/08/08 06:37:36;;;;;;;8.10;4.68;;;;;;;;;;5039430;28;20117;-55
2022/08/08 06:40:05;;;;;;;11.32;4.78;;;27.20;99.90;;;;;;5045347;28;20073;-53
2022/08/08 06:42:35;;;;;;;4.95;4.15;;;27.40;99.90;;;;;;5045979;28;20045;-57
2022/08/08 06:45:06;;;;;;;8.45;4.65;;;27.10;99.90;;;;;;5042855;28;20032;-55
2022/08/08 06:47:34;;;;;;;8.48;4.30;;;27.50;99.90;;;;;;5037595;28;20025;-55
2022/08/08 06:50:00;;;;;;;4.65;3.75;;;;;;;;;;5045105;28;20049;-57
2022/08/08 06:52:27;;;;;;;6.97;3.92;;;;;;;;;;5045751;28;20022;-57
2022/08/08 06:54:57;;;;;;;4.55;3.83;;;;;;;;;;5045693;28;20044;-54
2022/08/08 06:57:25;;;;;;;5.80;4.03;;;;;;;;;;5044650;28;20029;-54
2022/08/08 06:59:51;;;;;;;8.27;3.88;;;;;;;;;;5043436;28;20037;-55
2022/08/08 07:02:24;;;;;;;7.88;3.60;;;28.20;99.90;;;;;;5042959;28;20079;-55
2022/08/08 07:04:59;;;;;;;5.38;3.95;;;27.80;99.90;;;;;;5040621;28;20044;-55
2022/08/08 07:07:52;;;;;;;7.45;4.18;;;28.10;99.90;;;;;;5041474;28;20041;-53
2022/08/08 07:10:22;;;;;;;5.07;3.90;;;28.30;99.90;;;;;;5045163;28;20037;-55
2022/08/08 07:12:53;;;;;;;7.20;3.95;;;;;;;;;;5044740;28;20090;-56
2022/08/08 07:15:36;;;;;;;7.32;4.15;;;28.70;99.90;;;;;;5043439;28;20033;-58
2022/08/08 07:18:05;;;;;;;4.55;3.75;;;28.60;99.90;;;;;;5043726;28;20464;-52
2022/08/08 07:20:35;;;;;;;6.25;3.72;;;;;;;;;;5037025;28;20131;-54
2022/08/08 07:23:21;;;;;;;4.35;3.58;;;28.80;99.90;;;;;;5045333;28;20495;-53
2022/08/08 07:25:49;;;;;;;5.65;3.60;;;28.80;99.90;;;;;;5045065;28;20079;-53
2022/08/08 07:28:18;;;;;;;7.43;4.10;;;;;;;;;;5042584;28;20072;-54
2022/08/08 07:30:45;;;;;;;6.50;4.30;;;29.30;99.90;;;;;;5047548;28;20148;-54
2022/08/08 07:33:13;;;;;;;9.68;5.28;;;;;;;;;;5043312;28;20075;-57
2022/08/08 07:35:39;;;;;;;13.77;4.47;;;;;;;;;;5041635;28;20036;-55
2022/08/08 07:38:06;;;;;;;5.38;3.72;;;30.20;99.90;;;;;;5043068;28;20059;-57
2022/08/08 07:40:32;;;;;;;5.00;3.60;;;;;;;;;;5052338;28;20029;-53
2022/08/08 07:43:02;;;;;;;5.82;3.08;;;30.60;99.90;;;;;;5051298;28;20438;-54
2022/08/08 07:45:28;;;;;;;4.45;3.58;;;30.00;97.50;;;;;;5049272;28;20029;-58
2022/08/08 07:47:54;;;;;;;5.60;3.72;;;;;;;;;;5024837;28;20033;-58
2022/08/08 07:50:25;;;;;;;10.27;3.60;;;30.20;96.50;;;;;;5039955;28;20037;-56
2022/08/08 07:53:17;;;;;;;5.05;3.80;;;30.30;96.90;;;;;;5040848;28;20063;-56
2022/08/08 07:55:45;;;;;;;5.22;4.20;;;30.10;96.70;;;;;;5040668;28;20036;-55
2022/08/08 07:58:19;;;;;;;6.15;3.83;;;;;;;;;;5043013;28;20349;-54
2022/08/08 08:00:51;;;;;;;8.30;3.70;;;;;;;;;;5042546;28;20040;-56
2022/08/08 08:04:00;;;;;;;9.02;3.67;;;30.50;96.00;;;;;;5034093;28;20404;-58
2022/08/08 08:06:26;;;;;;;4.72;3.70;;;30.40;96.10;;;;;;5043711;28;20024;-53
2022/08/08 08:09:03;;;;;;;7.22;4.13;;;30.20;96.10;;;;;;5043313;28;20056;-57
2022/08/08 08:11:33;;;;;;;6.20;4.07;;;30.30;96.20;;;;;;5043584;28;20037;-55
2022/08/08 08:14:03;;;;;;;9.73;4.22;;;30.40;96.80;;;;;;5040542;28;20345;-57
2022/08/08 08:16:30;;;;;;;13.15;4.15;;;;;;;;;;5043340;28;20028;-55
2022/08/08 08:18:59;;;;;;;7.50;3.92;;;31.10;95.40;;;;;;5044857;28;20115;-58
2022/08/08 08:21:30;;;;;;;4.45;3.80;;;;;;;;;;5038338;28;20035;-53
2022/08/08 08:23:56;;;;;;;6.67;3.90;;;;;;;;;;5017443;28;20128;-55
2022/08/08 08:26:24;;;;;;;8.30;3.92;;;;;;;;;;5024594;28;20029;-54
2022/08/08 08:28:50;;;;;;;6.38;4.03;;;;;;;;;;5020469;28;20536;-56
2022/08/08 08:31:16;;;;;;;9.88;4.47;;;;;;;;;;5022826;28;20579;-56
2022/08/08 08:33:42;;;;;;;5.07;4.32;;;;;;;;;;5017080;28;20045;-55
2022/08/08 08:36:09;;;;;;;9.63;4.55;;;31.60;98.70;;;;;;4985630;28;20036;-56
2022/08/08 08:38:35;;;;;;;11.13;4.53;;;31.60;99.20;;;;;;5020246;28;20049;-55
2022/08/08 08:41:02;;;;;;;7.10;4.28;;;31.60;99.10;;;;;;5021277;28;20022;-55
2022/08/08 08:43:30;;;;;;;7.95;4.40;;;;;;;;;;4994480;28;20038;-56
2022/08/08 08:45:56;;;;;;;8.15;4.30;;;;;;;;;;5021677;28;20063;-56
2022/08/08 08:48:23;;;;;;;8.57;4.38;;;;;;;;;;5014396;28;20034;-55
2022/08/08 08:50:50;;;;;;;8.63;4.20;;;;;;;;;;5021674;28;20748;-56
2022/08/08 08:53:16;;;;;;;7.75;5.10;;;;;;;;;;5019104;28;20037;-56
2022/08/08 08:55:44;;;;;;;5.15;4.45;;;32.70;99.90;;;;;;5037679;28;20045;-55
2022/08/08 08:58:22;;;;;;;5.97;4.72;;;32.70;93.60;;;;;;5041664;28;20033;-56
2022/08/08 09:00:48;;;;;;;8.02;4.03;;;32.70;93.50;;;;;;5039216;28;20025;-56
2022/08/08 09:03:15;;;;;;;5.40;4.60;;;;;;;;;;5040969;28;20414;-56
2022/08/08 09:05:42;;;;;;;6.65;5.10;;;33.30;99.90;;;;;;5042598;28;20029;-55
2022/08/08 09:08:09;;;;;;;6.28;4.38;;;33.20;92.70;;;;;;5035263;28;20029;-55
2022/08/08 09:10:40;;;;;;;6.93;4.93;;;33.40;93.00;;;;;;5042993;28;20045;-56
2022/08/08 09:13:08;;;;;;;7.07;4.78;;;33.40;92.10;;;;;;5042754;28;20049;-57
2022/08/08 09:15:34;;;;;;;8.48;5.28;;;33.60;92.10;;;;;;5041398;28;20072;-56
2022/08/08 09:18:02;;;;;;;9.55;4.70;;;;;;;;;;5040502;28;20064;-57
2022/08/08 09:20:28;;;;;;;8.07;5.07;;;34.00;99.90;;;;;;5043565;28;20075;-56
2022/08/08 09:22:55;;;;;;;5.93;5.32;;;;;;;;;;5039751;28;20030;-55
2022/08/08 09:25:21;;;;;;;7.78;4.90;;;;;;;;;;5046283;28;20124;-56
2022/08/08 09:27:47;;;;;;;23.10;7.50;;;34.40;92.10;;;;;;5045473;28;20028;-54
2022/08/08 09:30:14;;;;;;;12.50;5.75;;;34.10;91.50;;;;;;5045031;28;20089;-55
2022/08/08 09:32:47;;;;;;;12.77;5.93;;;33.80;91.50;;;;;;5038806;28;20052;-54
2022/08/08 09:35:24;;;;;;;15.02;6.28;;;33.60;91.90;;;;;;5046867;28;20067;-54
2022/08/08 09:37:56;;;;;;;15.35;6.88;;;34.10;91.90;;;;;;5046120;28;20067;-56
2022/08/08 09:40:24;;;;;;;8.55;6.00;;;;;;;;;;5043367;28;20033;-54
2022/08/08 09:43:03;;;;;;;9.48;5.47;;;34.70;91.20;;;;;;5044966;28;20083;-55
2022/08/08 09:45:51;;;;;;;7.10;5.22;;;34.00;91.00;;;;;;5047377;28;20086;-55
2022/08/08 09:48:18;;;;;;;10.77;5.70;;;34.50;90.90;;;;;;5055525;28;20028;-56
2022/08/08 09:50:47;;;;;;;7.60;5.95;;;;;;;;;;5046867;28;20032;-55
2022/08/08 09:53:17;;;;;;;9.65;6.00;;;;;;;;;;5046947;28;20033;-54
2022/08/08 09:55:45;;;;;;;12.57;5.83;;;;;;;;;;5046673;28;20538;-55
2022/08/08 09:58:15;;;;;;;10.35;5.65;;;;;;;;;;5045338;28;20270;-55
2022/08/08 10:00:41;;;;;;;8.10;5.60;;;;;;;;;;5036923;28;20449;-55
2022/08/08 10:03:10;;;;;;;7.57;5.40;;;35.70;90.60;;;;;;5046668;28;20032;-55
2022/08/08 10:05:37;;;;;;;10.27;5.38;;;35.50;92.10;;;;;;5046561;28;20113;-54
2022/08/08 10:08:04;;;;;;;7.32;5.00;;;;;;;;;;5019700;28;20045;-55
2022/08/08 10:10:32;;;;;;;6.55;5.07;;;;;;;;;;5045052;28;20068;-55
2022/08/08 10:12:59;;;;;;;7.47;5.07;;;36.20;89.00;;;;;;5043178;28;20037;-54
2022/08/08 10:15:34;;;;;;;8.50;4.85;;;36.20;89.60;;;;;;5045599;28;20029;-55
2022/08/08 10:18:00;;;;;;;11.23;4.72;;;36.50;89.20;;;;;;5044802;28;20025;-55
2022/08/08 10:20:28;;;;;;;7.53;4.05;;;36.60;88.50;;;;;;5043923;28;20048;-55
2022/08/08 10:23:00;;;;;;;8.95;4.55;;;36.40;87.40;;;;;;5044309;28;20482;-55
2022/08/08 10:25:27;;;;;;;8.70;4.15;;;36.30;87.10;;;;;;5043955;28;20022;-55
2022/08/08 10:27:54;;;;;;;7.25;5.13;;;35.50;87.10;;;;;;5044273;28;20033;-55
2022/08/08 10:30:22;;;;;;;6.80;4.85;;;35.70;87.60;;;;;;5042567;28;20110;-55
2022/08/08 10:32:55;;;;;;;6.32;4.40;;;;;;;;;;5043851;28;20072;-55
2022/08/08 10:35:27;;;;;;;8.98;4.10;;;36.40;91.50;;;;;;5046149;28;20476;-55
2022/08/08 10:38:03;;;;;;;6.90;4.20;;;36.70;87.10;;;;;;5044685;28;20110;-55
2022/08/08 10:40:30;;;;;;;7.55;4.10;;;36.90;86.40;;;;;;5043173;28;20052;-54
2022/08/08 10:42:59;;;;;;;8.27;4.70;;;36.80;85.80;;;;;;5044144;28;20037;-55
2022/08/08 10:45:26;;;;;;;7.95;4.25;;;36.90;85.70;;;;;;5038492;28;20528;-56
2022/08/08 10:47:55;;;;;;;8.65;4.05;;;36.50;85.40;;;;;;5044957;28;20083;-55
2022/08/08 10:50:30;;;;;;;4.32;3.63;;;36.40;85.80;;;;;;5043155;28;20081;-55
2022/08/08 10:53:01;;;;;;;15.57;5.07;;;36.50;84.80;;;;;;5041620;28;20545;-55
2022/08/08 10:55:27;;;;;;;;;;;36.60;85.00;;;;;;5044589;28;20037;-55
2022/08/08 10:57:53;;;;;;;9.50;4.10;;;37.10;84.90;;;;;;5042712;28;19915;-55
2022/08/08 11:00:24;;;;;;;5.97;4.10;;;36.80;83.70;;;;;;5043757;28;20030;-55
2022/08/08 11:02:50;;;;;;;5.00;4.50;;;36.90;83.90;;;;;;5041124;28;20556;-55
2022/08/08 11:05:17;;;;;;;6.50;3.92;;;37.20;84.00;;;;;;5041162;28;20033;-54
2022/08/08 11:07:52;;;;;;;6.20;3.83;;;37.60;90.50;;;;;;5038669;28;20037;-52
2022/08/08 11:10:19;;;;;;;7.57;3.88;;;;;;;;;;5039119;28;20038;-55
2022/08/08 11:12:53;;;;;;;5.40;3.45;;;36.90;81.60;;;;;;5044315;28;20025;-53
2022/08/08 11:15:22;;;;;;;4.80;3.90;;;35.70;82.90;;;;;;5041153;28;20025;-53
2022/08/08 11:17:48;;;;;;;5.47;3.30;;;35.90;84.20;;;;;;5041758;28;20051;-52
2022/08/08 11:20:22;;;;;;;8.23;3.38;;;35.90;82.80;;;;;;5043845;28;20057;-52
2022/08/08 11:22:52;;;;;;;4.38;3.38;;;36.20;83.00;;;;;;5042519;28;20583;-53
2022/08/08 11:25:24;;;;;;;5.35;3.90;;;36.90;83.40;;;;;;5040859;28;20044;-52
2022/08/08 11:27:54;;;;;;;9.40;5.65;;;36.90;82.10;;;;;;5037009;28;20384;-54
2022/08/08 11:30:23;;;;;;;7.80;4.50;;;36.40;81.80;;;;;;5051369;28;20044;-53
2022/08/08 11:32:52;;;;;;;4.85;3.83;;;36.80;82.00;;;;;;5034931;28;20025;-58
2022/08/08 11:35:19;;;;;;;8.30;4.70;;;36.80;81.80;;;;;;5046181;28;20079;-53
2022/08/08 11:37:46;;;;;;;11.68;4.90;;;;;;;;;;5043394;28;20029;-54
2022/08/08 11:40:13;;;;;;;8.27;5.13;;;38.10;92.70;;;;;;5037818;28;20029;-56
2022/08/08 11:42:40;;;;;;;11.30;4.35;;;;;;;;;;5045148;28;20017;-52
2022/08/08 11:45:07;;;;;;;7.50;3.85;;;;;;;;;;5043170;28;20018;-56
2022/08/08 11:47:34;;;;;;;5.03;3.88;;;;;;;;;;5025048;28;20118;-54
2022/08/08 11:50:02;;;;;;;6.47;3.90;;;;;;;;;;5042131;28;20036;-55
2022/08/08 11:52:28;;;;;;;8.23;4.50;;;;;;;;;;5047451;28;20388;-55
2022/08/08 11:54:54;;;;;;;6.63;4.13;;;;;;;;;;5044692;28;20472;-54
2022/08/08 11:57:22;;;;;;;6.50;3.85;;;;;;;;;;5043238;28;20033;-52
2022/08/08 11:59:48;;;;;;;5.35;3.92;;;;;;;;;;5040120;28;20037;-57
2022/08/08 12:02:14;;;;;;;5.13;3.95;;;;;;;;;;5036744;28;20554;-54
2022/08/08 12:04:41;;;;;;;19.08;4.55;;;;;;;;;;5043528;28;20111;-56
2022/08/08 12:07:07;;;;;;;5.90;3.88;;;;;;;;;;5034122;28;20084;-54
2022/08/08 12:09:34;;;;;;;6.40;3.90;;;;;;;;;;5041694;28;20045;-55
2022/08/08 12:12:00;;;;;;;5.60;3.97;;;;;;;;;;5038203;28;20057;-52
2022/08/08 12:14:27;;;;;;;5.18;3.65;;;39.10;79.10;;;;;;5045611;28;20443;-55
2022/08/08 12:16:53;;;;;;;9.82;3.95;;;39.00;79.30;;;;;;5041996;28;20017;-53
2022/08/08 12:19:20;;;;;;;8.75;4.45;;;39.30;78.90;;;;;;5041889;28;20053;-54
2022/08/08 12:21:47;;;;;;;6.95;4.30;;;39.40;79.00;;;;;;5042402;28;20037;-54
2022/08/08 12:24:15;;;;;;;10.40;4.20;;;39.20;78.10;;;;;;5043521;28;20456;-53
2022/08/08 12:26:52;;;;;;;6.63;3.97;;;39.20;78.80;;;;;;5043589;28;20029;-53
2022/08/08 12:29:33;;;;;;;4.75;4.10;;;38.40;78.20;;;;;;5043827;28;20099;-55
2022/08/08 12:32:03;;;;;;;7.45;4.03;;;38.20;78.50;;;;;;5041311;28;20544;-52
2022/08/08 12:34:33;;;;;;;5.53;3.97;;;38.40;78.40;;;;;;5037484;28;20405;-56
2022/08/08 12:37:06;;;;;;;5.10;3.75;;;38.20;78.60;;;;;;5038348;28;20053;-56
2022/08/08 12:39:32;;;;;;;5.20;4.65;;;38.00;78.50;;;;;;5043111;28;20037;-56
2022/08/08 12:41:59;;;;;;;4.85;4.18;;;38.60;78.50;;;;;;5043880;28;20039;-55
2022/08/08 12:44:29;;;;;;;5.53;3.85;;;38.90;78.40;;;;;;5036601;28;20056;-54
2022/08/08 12:46:57;;;;;;;4.65;3.80;;;38.70;77.80;;;;;;5034291;28;20056;-57
2022/08/08 12:49:27;;;;;;;4.95;4.03;;;38.10;78.60;;;;;;5038019;28;20041;-52
2022/08/08 12:51:54;;;;;;;4.78;3.88;;;38.70;78.50;;;;;;5042615;28;20035;-53
2022/08/08 12:54:26;;;;;;;5.60;4.03;;;38.30;77.70;;;;;;5027429;28;20120;-55
2022/08/08 12:56:52;;;;;;;5.65;4.03;;;38.20;78.60;;;;;;5042175;28;20041;-55
2022/08/08 12:59:26;;;;;;;5.68;4.32;;;38.50;80.10;;;;;;5039266;28;20033;-54
2022/08/08 13:01:54;;;;;;;8.32;4.07;;;39.00;79.40;;;;;;5041764;28;20114;-55
2022/08/08 13:04:34;;;;;;;5.65;4.15;;;38.70;78.60;;;;;;5034759;28;20033;-53
2022/08/08 13:07:05;;;;;;;7.00;4.10;;;39.00;78.50;;;;;;5040292;28;20040;-55
2022/08/08 13:09:45;;;;;;;4.35;3.95;;;39.10;88.10;;;;;;5015999;28;20068;-53
2022/08/08 13:12:11;;;;;;;6.43;4.68;;;;;;;;;;5022616;28;20073;-52
2022/08/08 13:14:49;;;;;;;5.30;4.20;;;39.80;99.20;;;;;;5005730;28;20131;-53
2022/08/08 13:17:19;;;;;;;6.38;4.55;;;40.10;98.10;;;;;;4998743;28;20045;-53
2022/08/08 13:19:45;;;;;;;5.15;4.30;;;39.80;97.80;;;;;;4992023;28;20585;-53
2022/08/08 13:22:15;;;;;;;6.63;4.45;;;38.70;86.00;;;;;;4981419;28;20135;-53
2022/08/08 13:24:41;;;;;;;5.18;4.10;;;;;;;;;;4999218;28;20549;-53
2022/08/08 13:27:08;;;;;;;5.22;4.28;;;;;;;;;;4999977;28;20026;-51
2022/08/08 13:29:36;;;;;;;7.45;4.90;;;;;;;;;;5000636;28;20050;-51
2022/08/08 13:32:03;;;;;;;8.32;4.88;;;;;;;;;;5000131;28;20116;-55
2022/08/08 13:34:30;;;;;;;6.72;4.75;;;;;;;;;;4966822;28;20127;-53
2022/08/08 13:36:56;;;;;;;10.63;5.30;;;;;;;;;;4998049;28;20464;-56
2022/08/08 13:39:23;;;;;;;7.88;5.07;;;;;;;;;;4998851;28;20482;-53
2022/08/08 13:41:50;;;;;;;5.05;4.50;;;;;;;;;;5021087;28;20022;-52
2022/08/08 13:44:17;;;;;;;6.18;4.55;;;38.50;99.90;;;;;;5018837;28;20072;-55
2022/08/08 13:47:12;;;;;;;6.43;4.32;;;;;;;;;;5028612;28;20095;-56
2022/08/08 13:49:38;;;;;;;5.80;4.43;;;;;;;;;;4999027;28;20050;-56